sensor_id;sensor_type;location;lat;lon;timestamp;P1;durP1;ratioP1;P2;durP2;ratioP2
63953;SDS011;50128;52.094;5.232;2022-08-30T00:02:32;6.0;;;4.5;;
63953;SDS011;50128;52.094;5.232;2022-08-30T00:05:45;5.7;;;4.1;;
63953;SDS011;50128;52.094;5.232;2022-08-30T00:07:21;7.3;;;4.5;;
63953;SDS011;50128;52.094;5.232;2022-08-30T00:08:58;7.4;;;4.41;;
63953;SDS011;50128;52.094;5.232;2022-08-30T00:12:12;7.1;;;4.2;;
63953;SDS011;50128;52.094;5.232;2022-08-30T00:13:49;8.0;;;4.3;;
63953;SDS011;50128;52.094;5.232;2022-08-30T00:15:28;6.9;;;4.1;;
63953;SDS011;50128;52.094;5.232;2022-08-30T00:17:04;6.7;;;4.2;;
63953;SDS011;50128;52.094;5.232;2022-08-30T00:20:18;7.1;;;4.41;;
63953;SDS011;50128;52.094;5.232;2022-08-30T00:22:03;6.8;;;4.2;;
63953;SDS011;50128;52.094;5.232;2022-08-30T00:23:40;6.9;;;4.3;;
63953;SDS011;50128;52.094;5.232;2022-08-30T00:26:55;6.6;;;4.7;;
63953;SDS011;50128;52.094;5.232;2022-08-30T00:28:33;6.3;;;4.7;;
63953;SDS011;50128;52.094;5.232;2022-08-30T00:30:11;5.9;;;4.3;;
63953;SDS011;50128;52.094;5.232;2022-08-30T00:31:49;6.9;;;4.41;;
63953;SDS011;50128;52.094;5.232;2022-08-30T00:35:01;7.3;;;4.41;;
63953;SDS011;50128;52.094;5.232;2022-08-30T00:36:41;5.7;;;4.2;;
63953;SDS011;50128;52.094;5.232;2022-08-30T00:38:17;8.0;;;5.11;;
63953;SDS011;50128;52.094;5.232;2022-08-30T00:41:29;9.4;;;4.91;;
63953;SDS011;50128;52.094;5.232;2022-08-30T00:43:06;9.81;;;4.61;;
63953;SDS011;50128;52.094;5.232;2022-08-30T00:44:49;7.4;;;4.61;;
63953;SDS011;50128;52.094;5.232;2022-08-30T00:46:27;7.9;;;4.8;;
63953;SDS011;50128;52.094;5.232;2022-08-30T00:49:42;6.9;;;5.0;;
63953;SDS011;50128;52.094;5.232;2022-08-30T00:51:24;7.7;;;5.0;;
63953;SDS011;50128;52.094;5.232;2022-08-30T00:53:02;8.6;;;5.0;;
63953;SDS011;50128;52.094;5.232;2022-08-30T00:54:44;6.6;;;5.0;;
63953;SDS011;50128;52.094;5.232;2022-08-30T00:58:02;7.6;;;5.11;;
63953;SDS011;50128;52.094;5.232;2022-08-30T00:59:41;6.0;;;4.8;;
63953;SDS011;50128;52.094;5.232;2022-08-30T01:01:20;6.5;;;5.0;;
63953;SDS011;50128;52.094;5.232;2022-08-30T01:04:33;8.81;;;4.91;;
63953;SDS011;50128;52.094;5.232;2022-08-30T01:06:14;7.3;;;5.11;;
63953;SDS011;50128;52.094;5.232;2022-08-30T01:07:52;8.1;;;4.8;;
63953;SDS011;50128;52.094;5.232;2022-08-30T01:09:28;7.4;;;5.0;;
63953;SDS011;50128;52.094;5.232;2022-08-30T01:12:42;7.3;;;5.2;;
63953;SDS011;50128;52.094;5.232;2022-08-30T01:14:21;7.0;;;5.6;;
63953;SDS011;50128;52.094;5.232;2022-08-30T01:15:58;7.9;;;5.5;;
63953;SDS011;50128;52.094;5.232;2022-08-30T01:19:16;7.2;;;5.4;;
63953;SDS011;50128;52.094;5.232;2022-08-30T01:21:06;6.2;;;4.8;;
63953;SDS011;50128;52.094;5.232;2022-08-30T01:22:57;7.0;;;5.3;;
63953;SDS011;50128;52.094;5.232;2022-08-30T01:24:47;11.1;;;6.4;;
63953;SDS011;50128;52.094;5.232;2022-08-30T01:26:26;6.9;;;5.3;;
63953;SDS011;50128;52.094;5.232;2022-08-30T01:29:45;8.1;;;5.7;;
63953;SDS011;50128;52.094;5.232;2022-08-30T01:31:21;7.9;;;5.7;;
63953;SDS011;50128;52.094;5.232;2022-08-30T01:32:59;8.5;;;6.3;;
63953;SDS011;50128;52.094;5.232;2022-08-30T01:34:37;8.9;;;6.1;;
63953;SDS011;50128;52.094;5.232;2022-08-30T01:39:26;8.1;;;6.3;;
63953;SDS011;50128;52.094;5.232;2022-08-30T01:41:07;7.3;;;6.1;;
63953;SDS011;50128;52.094;5.232;2022-08-30T01:44:21;7.0;;;5.7;;
63953;SDS011;50128;52.094;5.232;2022-08-30T01:46:01;8.4;;;6.2;;
63953;SDS011;50128;52.094;5.232;2022-08-30T01:47:38;7.4;;;6.1;;
63953;SDS011;50128;52.094;5.232;2022-08-30T01:49:16;8.4;;;6.5;;
63953;SDS011;50128;52.094;5.232;2022-08-30T01:52:30;8.1;;;6.4;;
63953;SDS011;50128;52.094;5.232;2022-08-30T01:54:07;8.2;;;6.5;;
63953;SDS011;50128;52.094;5.232;2022-08-30T01:55:44;8.2;;;7.1;;
63953;SDS011;50128;52.094;5.232;2022-08-30T01:58:59;8.1;;;6.5;;
63953;SDS011;50128;52.094;5.232;2022-08-30T02:00:37;7.8;;;6.8;;
63953;SDS011;50128;52.094;5.232;2022-08-30T02:02:15;8.71;;;7.2;;
63953;SDS011;50128;52.094;5.232;2022-08-30T02:03:55;8.0;;;7.2;;
63953;SDS011;50128;52.094;5.232;2022-08-30T02:07:09;7.9;;;7.0;;
63953;SDS011;50128;52.094;5.232;2022-08-30T02:08:46;9.31;;;7.6;;
63953;SDS011;50128;52.094;5.232;2022-08-30T02:10:23;7.9;;;7.1;;
63953;SDS011;50128;52.094;5.232;2022-08-30T02:13:37;7.8;;;7.0;;
63953;SDS011;50128;52.094;5.232;2022-08-30T02:15:15;8.5;;;7.1;;
63953;SDS011;50128;52.094;5.232;2022-08-30T02:16:52;7.8;;;7.0;;
63953;SDS011;50128;52.094;5.232;2022-08-30T02:18:28;8.71;;;7.6;;
63953;SDS011;50128;52.094;5.232;2022-08-30T02:21:42;8.5;;;7.6;;
63953;SDS011;50128;52.094;5.232;2022-08-30T02:23:18;8.6;;;7.5;;
63953;SDS011;50128;52.094;5.232;2022-08-30T02:24:54;8.9;;;8.0;;
63953;SDS011;50128;52.094;5.232;2022-08-30T02:28:08;8.5;;;7.6;;
63953;SDS011;50128;52.094;5.232;2022-08-30T02:29:45;9.21;;;7.9;;
63953;SDS011;50128;52.094;5.232;2022-08-30T02:31:21;8.81;;;7.9;;
63953;SDS011;50128;52.094;5.232;2022-08-30T02:34:33;9.6;;;8.2;;
63953;SDS011;50128;52.094;5.232;2022-08-30T02:36:11;9.4;;;8.4;;
63953;SDS011;50128;52.094;5.232;2022-08-30T02:37:48;9.21;;;8.31;;
63953;SDS011;50128;52.094;5.232;2022-08-30T02:39:24;9.81;;;8.5;;
63953;SDS011;50128;52.094;5.232;2022-08-30T02:42:36;10.4;;;8.81;;
63953;SDS011;50128;52.094;5.232;2022-08-30T02:44:13;9.21;;;7.9;;
63953;SDS011;50128;52.094;5.232;2022-08-30T02:45:49;10.3;;;8.71;;
63953;SDS011;50128;52.094;5.232;2022-08-30T02:49:02;11.1;;;9.0;;
63953;SDS011;50128;52.094;5.232;2022-08-30T02:50:40;9.6;;;8.6;;
63953;SDS011;50128;52.094;5.232;2022-08-30T02:52:20;10.7;;;9.1;;
63953;SDS011;50128;52.094;5.232;2022-08-30T02:55:33;10.1;;;8.71;;
63953;SDS011;50128;52.094;5.232;2022-08-30T02:57:11;9.9;;;8.9;;
63953;SDS011;50128;52.094;5.232;2022-08-30T02:58:47;9.71;;;8.71;;
63953;SDS011;50128;52.094;5.232;2022-08-30T03:00:23;9.71;;;8.81;;
63953;SDS011;50128;52.094;5.232;2022-08-30T03:03:35;10.8;;;9.71;;
63953;SDS011;50128;52.094;5.232;2022-08-30T03:05:12;10.9;;;9.81;;
63953;SDS011;50128;52.094;5.232;2022-08-30T03:06:50;9.81;;;8.81;;
63953;SDS011;50128;52.094;5.232;2022-08-30T03:10:03;10.21;;;9.1;;
63953;SDS011;50128;52.094;5.232;2022-08-30T03:11:41;10.0;;;9.0;;
63953;SDS011;50128;52.094;5.232;2022-08-30T03:13:17;10.3;;;9.31;;
63953;SDS011;50128;52.094;5.232;2022-08-30T03:14:55;9.81;;;8.81;;
63953;SDS011;50128;52.094;5.232;2022-08-30T03:18:09;12.4;;;10.0;;
63953;SDS011;50128;52.094;5.232;2022-08-30T03:19:46;10.7;;;9.5;;
63953;SDS011;50128;52.094;5.232;2022-08-30T03:21:22;11.2;;;10.0;;
63953;SDS011;50128;52.094;5.232;2022-08-30T03:24:35;10.5;;;9.5;;
63953;SDS011;50128;52.094;5.232;2022-08-30T03:26:13;11.2;;;9.81;;
63953;SDS011;50128;52.094;5.232;2022-08-30T03:27:50;11.2;;;10.0;;
63953;SDS011;50128;52.094;5.232;2022-08-30T03:31:04;10.3;;;9.31;;
63953;SDS011;50128;52.094;5.232;2022-08-30T03:32:41;11.2;;;9.9;;
63953;SDS011;50128;52.094;5.232;2022-08-30T03:34:17;11.2;;;10.1;;
63953;SDS011;50128;52.094;5.232;2022-08-30T03:35:54;11.8;;;10.1;;
63953;SDS011;50128;52.094;5.232;2022-08-30T03:39:08;10.5;;;9.5;;
63953;SDS011;50128;52.094;5.232;2022-08-30T03:40:45;11.6;;;9.9;;
63953;SDS011;50128;52.094;5.232;2022-08-30T03:42:21;11.4;;;10.1;;
63953;SDS011;50128;52.094;5.232;2022-08-30T03:45:38;11.2;;;10.1;;
63953;SDS011;50128;52.094;5.232;2022-08-30T03:47:15;11.8;;;10.6;;
63953;SDS011;50128;52.094;5.232;2022-08-30T03:48:51;11.3;;;10.21;;
63953;SDS011;50128;52.094;5.232;2022-08-30T03:50:29;11.9;;;10.7;;
63953;SDS011;50128;52.094;5.232;2022-08-30T03:53:42;11.1;;;10.0;;
63953;SDS011;50128;52.094;5.232;2022-08-30T03:55:19;12.3;;;10.7;;
63953;SDS011;50128;52.094;5.232;2022-08-30T03:56:56;11.9;;;10.7;;
63953;SDS011;50128;52.094;5.232;2022-08-30T04:00:11;11.8;;;10.6;;
63953;SDS011;50128;52.094;5.232;2022-08-30T04:01:49;11.4;;;10.21;;
63953;SDS011;50128;52.094;5.232;2022-08-30T04:03:26;12.4;;;10.6;;
63953;SDS011;50128;52.094;5.232;2022-08-30T04:06:40;11.9;;;10.6;;
63953;SDS011;50128;52.094;5.232;2022-08-30T04:08:16;11.7;;;10.5;;
63953;SDS011;50128;52.094;5.232;2022-08-30T04:09:53;12.6;;;11.2;;
63953;SDS011;50128;52.094;5.232;2022-08-30T04:11:29;12.5;;;11.3;;
63953;SDS011;50128;52.094;5.232;2022-08-30T04:14:41;12.1;;;10.8;;
63953;SDS011;50128;52.094;5.232;2022-08-30T04:16:18;12.2;;;11.0;;
63953;SDS011;50128;52.094;5.232;2022-08-30T04:17:55;12.2;;;11.0;;
63953;SDS011;50128;52.094;5.232;2022-08-30T04:21:07;11.8;;;10.7;;
63953;SDS011;50128;52.094;5.232;2022-08-30T04:22:43;12.3;;;11.1;;
63953;SDS011;50128;52.094;5.232;2022-08-30T04:24:20;11.9;;;10.7;;
63953;SDS011;50128;52.094;5.232;2022-08-30T04:27:34;11.4;;;10.3;;
63953;SDS011;50128;52.094;5.232;2022-08-30T04:29:11;11.7;;;10.5;;
63953;SDS011;50128;52.094;5.232;2022-08-30T04:30:47;12.2;;;11.0;;
63953;SDS011;50128;52.094;5.232;2022-08-30T04:32:24;12.0;;;10.7;;
63953;SDS011;50128;52.094;5.232;2022-08-30T04:35:39;11.5;;;10.4;;
63953;SDS011;50128;52.094;5.232;2022-08-30T04:37:17;12.1;;;10.9;;
63953;SDS011;50128;52.094;5.232;2022-08-30T04:38:53;11.8;;;10.7;;
63953;SDS011;50128;52.094;5.232;2022-08-30T04:42:05;11.8;;;10.7;;
63953;SDS011;50128;52.094;5.232;2022-08-30T04:43:42;12.5;;;11.2;;
63953;SDS011;50128;52.094;5.232;2022-08-30T04:45:20;11.2;;;10.1;;
63953;SDS011;50128;52.094;5.232;2022-08-30T04:46:57;10.8;;;9.81;;
63953;SDS011;50128;52.094;5.232;2022-08-30T04:50:13;11.3;;;9.6;;
63953;SDS011;50128;52.094;5.232;2022-08-30T04:51:53;11.0;;;9.9;;
63953;SDS011;50128;52.094;5.232;2022-08-30T04:53:30;11.6;;;10.4;;
63953;SDS011;50128;52.094;5.232;2022-08-30T04:56:45;11.9;;;10.7;;
63953;SDS011;50128;52.094;5.232;2022-08-30T04:58:22;11.9;;;10.7;;
63953;SDS011;50128;52.094;5.232;2022-08-30T04:59:59;11.5;;;10.4;;
63953;SDS011;50128;52.094;5.232;2022-08-30T05:01:36;11.4;;;10.3;;
63953;SDS011;50128;52.094;5.232;2022-08-30T05:05:56;11.8;;;10.7;;
63953;SDS011;50128;52.094;5.232;2022-08-30T05:07:35;10.7;;;9.6;;
63953;SDS011;50128;52.094;5.232;2022-08-30T05:09:12;12.4;;;11.1;;
63953;SDS011;50128;52.094;5.232;2022-08-30T05:10:49;11.1;;;10.1;;
63953;SDS011;50128;52.094;5.232;2022-08-30T05:12:28;11.8;;;10.7;;
63953;SDS011;50128;52.094;5.232;2022-08-30T05:15:41;11.0;;;9.9;;
63953;SDS011;50128;52.094;5.232;2022-08-30T05:17:19;11.2;;;10.0;;
63953;SDS011;50128;52.094;5.232;2022-08-30T05:18:56;12.0;;;10.8;;
63953;SDS011;50128;52.094;5.232;2022-08-30T05:20:33;11.7;;;10.5;;
63953;SDS011;50128;52.094;5.232;2022-08-30T05:23:47;12.3;;;11.1;;
63953;SDS011;50128;52.094;5.232;2022-08-30T05:25:25;11.9;;;10.7;;
63953;SDS011;50128;52.094;5.232;2022-08-30T05:27:04;11.5;;;10.4;;
63953;SDS011;50128;52.094;5.232;2022-08-30T05:30:18;11.9;;;10.21;;
63953;SDS011;50128;52.094;5.232;2022-08-30T05:31:55;11.3;;;10.1;;
63953;SDS011;50128;52.094;5.232;2022-08-30T05:33:32;11.6;;;10.4;;
63953;SDS011;50128;52.094;5.232;2022-08-30T05:35:09;11.8;;;10.6;;
63953;SDS011;50128;52.094;5.232;2022-08-30T05:38:24;11.5;;;10.1;;
63953;SDS011;50128;52.094;5.232;2022-08-30T05:40:00;11.0;;;9.9;;
63953;SDS011;50128;52.094;5.232;2022-08-30T05:41:37;14.2;;;11.2;;
63953;SDS011;50128;52.094;5.232;2022-08-30T05:44:51;12.1;;;10.8;;
63953;SDS011;50128;52.094;5.232;2022-08-30T05:46:32;11.1;;;10.0;;
63953;SDS011;50128;52.094;5.232;2022-08-30T05:48:08;11.7;;;10.5;;
63953;SDS011;50128;52.094;5.232;2022-08-30T05:49:45;11.1;;;10.0;;
63953;SDS011;50128;52.094;5.232;2022-08-30T05:53:01;10.6;;;9.5;;
63953;SDS011;50128;52.094;5.232;2022-08-30T05:54:37;10.7;;;9.71;;
63953;SDS011;50128;52.094;5.232;2022-08-30T05:56:15;10.9;;;9.71;;
63953;SDS011;50128;52.094;5.232;2022-08-30T05:59:29;11.0;;;9.71;;
63953;SDS011;50128;52.094;5.232;2022-08-30T06:01:05;10.9;;;9.81;;
63953;SDS011;50128;52.094;5.232;2022-08-30T06:02:43;10.7;;;9.71;;
63953;SDS011;50128;52.094;5.232;2022-08-30T06:07:31;9.81;;;8.81;;
63953;SDS011;50128;52.094;5.232;2022-08-30T06:09:09;10.5;;;9.4;;
63953;SDS011;50128;52.094;5.232;2022-08-30T06:10:48;10.3;;;8.9;;
63953;SDS011;50128;52.094;5.232;2022-08-30T06:14:02;10.7;;;9.4;;
63953;SDS011;50128;52.094;5.232;2022-08-30T06:15:40;10.0;;;9.0;;
63953;SDS011;50128;52.094;5.232;2022-08-30T06:17:16;9.4;;;8.5;;
63953;SDS011;50128;52.094;5.232;2022-08-30T06:20:31;8.9;;;8.0;;
63953;SDS011;50128;52.094;5.232;2022-08-30T06:22:07;8.81;;;7.9;;
63953;SDS011;50128;52.094;5.232;2022-08-30T06:23:44;8.6;;;7.7;;
63953;SDS011;50128;52.094;5.232;2022-08-30T06:25:21;9.0;;;7.1;;
63953;SDS011;50128;52.094;5.232;2022-08-30T06:28:33;7.9;;;7.0;;
63953;SDS011;50128;52.094;5.232;2022-08-30T06:30:10;7.9;;;7.0;;
63953;SDS011;50128;52.094;5.232;2022-08-30T06:31:48;6.5;;;5.6;;
63953;SDS011;50128;52.094;5.232;2022-08-30T06:35:00;7.6;;;5.2;;
63953;SDS011;50128;52.094;5.232;2022-08-30T06:36:38;7.6;;;5.11;;
63953;SDS011;50128;52.094;5.232;2022-08-30T06:38:15;7.3;;;5.11;;
63953;SDS011;50128;52.094;5.232;2022-08-30T06:41:29;6.4;;;5.0;;
63953;SDS011;50128;52.094;5.232;2022-08-30T06:43:07;6.6;;;4.7;;
63953;SDS011;50128;52.094;5.232;2022-08-30T06:44:44;5.6;;;4.0;;
63953;SDS011;50128;52.094;5.232;2022-08-30T06:46:23;5.4;;;4.0;;
63953;SDS011;50128;52.094;5.232;2022-08-30T06:49:37;5.7;;;3.8;;
63953;SDS011;50128;52.094;5.232;2022-08-30T06:51:14;5.2;;;3.6;;
63953;SDS011;50128;52.094;5.232;2022-08-30T06:52:54;5.4;;;3.6;;
63953;SDS011;50128;52.094;5.232;2022-08-30T06:56:07;6.2;;;3.5;;
63953;SDS011;50128;52.094;5.232;2022-08-30T06:57:46;5.11;;;3.5;;
63953;SDS011;50128;52.094;5.232;2022-08-30T06:59:22;4.61;;;3.2;;
63953;SDS011;50128;52.094;5.232;2022-08-30T07:00:59;5.8;;;3.4;;
63953;SDS011;50128;52.094;5.232;2022-08-30T07:04:13;5.4;;;3.0;;
63953;SDS011;50128;52.094;5.232;2022-08-30T07:05:49;4.5;;;2.8;;
63953;SDS011;50128;52.094;5.232;2022-08-30T07:07:25;6.0;;;3.1;;
63953;SDS011;50128;52.094;5.232;2022-08-30T07:10:38;4.5;;;2.9;;
63953;SDS011;50128;52.094;5.232;2022-08-30T07:12:16;4.61;;;2.6;;
63953;SDS011;50128;52.094;5.232;2022-08-30T07:13:52;5.2;;;2.6;;
63953;SDS011;50128;52.094;5.232;2022-08-30T07:15:28;4.8;;;2.4;;
63953;SDS011;50128;52.094;5.232;2022-08-30T07:20:26;4.8;;;2.5;;
63953;SDS011;50128;52.094;5.232;2022-08-30T07:22:02;4.1;;;2.4;;
63953;SDS011;50128;52.094;5.232;2022-08-30T07:25:16;3.7;;;1.8;;
63953;SDS011;50128;52.094;5.232;2022-08-30T07:26:53;5.5;;;2.31;;
63953;SDS011;50128;52.094;5.232;2022-08-30T07:28:29;3.9;;;2.0;;
63953;SDS011;50128;52.094;5.232;2022-08-30T07:31:44;4.1;;;2.1;;
63953;SDS011;50128;52.094;5.232;2022-08-30T07:33:21;5.4;;;2.0;;
63953;SDS011;50128;52.094;5.232;2022-08-30T07:34:58;4.7;;;2.0;;
63953;SDS011;50128;52.094;5.232;2022-08-30T07:36:35;4.3;;;2.0;;
63953;SDS011;50128;52.094;5.232;2022-08-30T07:39:50;3.5;;;1.6;;
63953;SDS011;50128;52.094;5.232;2022-08-30T07:41:28;3.8;;;2.0;;
63953;SDS011;50128;52.094;5.232;2022-08-30T07:43:06;3.6;;;2.0;;
63953;SDS011;50128;52.094;5.232;2022-08-30T07:46:19;3.7;;;1.6;;
63953;SDS011;50128;52.094;5.232;2022-08-30T07:47:56;3.7;;;1.3;;
63953;SDS011;50128;52.094;5.232;2022-08-30T07:49:33;3.5;;;1.6;;
63953;SDS011;50128;52.094;5.232;2022-08-30T07:51:10;4.5;;;1.3;;
63953;SDS011;50128;52.094;5.232;2022-08-30T07:54:24;3.7;;;1.6;;
63953;SDS011;50128;52.094;5.232;2022-08-30T07:56:01;4.2;;;1.5;;
63953;SDS011;50128;52.094;5.232;2022-08-30T08:00:50;4.0;;;1.4;;
63953;SDS011;50128;52.094;5.232;2022-08-30T08:02:27;3.7;;;1.3;;
63953;SDS011;50128;52.094;5.232;2022-08-30T08:04:03;3.0;;;1.3;;
63953;SDS011;50128;52.094;5.232;2022-08-30T08:07:18;4.7;;;1.5;;
63953;SDS011;50128;52.094;5.232;2022-08-30T08:08:56;3.3;;;1.2;;
63953;SDS011;50128;52.094;5.232;2022-08-30T08:10:32;5.4;;;1.11;;
63953;SDS011;50128;52.094;5.232;2022-08-30T08:12:11;4.5;;;1.2;;
63953;SDS011;50128;52.094;5.232;2022-08-30T08:15:25;2.8;;;1.11;;
63953;SDS011;50128;52.094;5.232;2022-08-30T08:17:03;3.1;;;1.3;;
63953;SDS011;50128;52.094;5.232;2022-08-30T08:18:40;3.7;;;1.3;;
63953;SDS011;50128;52.094;5.232;2022-08-30T08:21:55;2.7;;;1.11;;
63953;SDS011;50128;52.094;5.232;2022-08-30T08:23:32;2.5;;;1.11;;
63953;SDS011;50128;52.094;5.232;2022-08-30T08:25:09;2.8;;;1.2;;
63953;SDS011;50128;52.094;5.232;2022-08-30T08:26:45;3.0;;;1.0;;
63953;SDS011;50128;52.094;5.232;2022-08-30T08:29:58;2.5;;;0.9;;
63953;SDS011;50128;52.094;5.232;2022-08-30T08:31:35;2.8;;;1.0;;
63953;SDS011;50128;52.094;5.232;2022-08-30T08:33:12;5.8;;;1.3;;
63953;SDS011;50128;52.094;5.232;2022-08-30T08:36:25;3.3;;;1.0;;
63953;SDS011;50128;52.094;5.232;2022-08-30T08:38:01;3.5;;;1.11;;
63953;SDS011;50128;52.094;5.232;2022-08-30T08:39:37;3.6;;;1.2;;
63953;SDS011;50128;52.094;5.232;2022-08-30T08:41:19;2.7;;;1.0;;
63953;SDS011;50128;52.094;5.232;2022-08-30T08:44:50;2.7;;;0.9;;
63953;SDS011;50128;52.094;5.232;2022-08-30T08:46:34;2.6;;;1.11;;
63953;SDS011;50128;52.094;5.232;2022-08-30T08:48:22;3.4;;;1.2;;
63953;SDS011;50128;52.094;5.232;2022-08-30T08:50:07;2.8;;;1.11;;
63953;SDS011;50128;52.094;5.232;2022-08-30T08:54:40;3.1;;;1.11;;
63953;SDS011;50128;52.094;5.232;2022-08-30T08:56:22;2.7;;;1.0;;
63953;SDS011;50128;52.094;5.232;2022-08-30T08:57:59;4.3;;;1.3;;
63953;SDS011;50128;52.094;5.232;2022-08-30T09:01:16;3.5;;;1.2;;
63953;SDS011;50128;52.094;5.232;2022-08-30T09:02:55;2.6;;;1.11;;
63953;SDS011;50128;52.094;5.232;2022-08-30T09:04:34;4.5;;;1.5;;
63953;SDS011;50128;52.094;5.232;2022-08-30T09:08:10;2.4;;;1.0;;
63953;SDS011;50128;52.094;5.232;2022-08-30T09:09:51;2.6;;;1.11;;
63953;SDS011;50128;52.094;5.232;2022-08-30T09:11:29;2.6;;;1.11;;
63953;SDS011;50128;52.094;5.232;2022-08-30T09:13:09;3.0;;;1.0;;
63953;SDS011;50128;52.094;5.232;2022-08-30T09:14:47;5.0;;;1.4;;
63953;SDS011;50128;52.094;5.232;2022-08-30T09:18:40;3.7;;;1.0;;
63953;SDS011;50128;52.094;5.232;2022-08-30T09:20:27;2.5;;;1.11;;
63953;SDS011;50128;52.094;5.232;2022-08-30T09:22:11;3.4;;;1.2;;
63953;SDS011;50128;52.094;5.232;2022-08-30T09:23:54;2.5;;;1.0;;
63953;SDS011;50128;52.094;5.232;2022-08-30T09:25:32;3.4;;;1.2;;
63953;SDS011;50128;52.094;5.232;2022-08-30T09:29:07;2.8;;;0.9;;
63953;SDS011;50128;52.094;5.232;2022-08-30T09:30:57;2.4;;;1.0;;
63953;SDS011;50128;52.094;5.232;2022-08-30T09:32:38;3.3;;;1.11;;
63953;SDS011;50128;52.094;5.232;2022-08-30T09:34:16;5.0;;;1.3;;
63953;SDS011;50128;52.094;5.232;2022-08-30T09:35:56;3.7;;;1.3;;
63953;SDS011;50128;52.094;5.232;2022-08-30T09:37:51;2.9;;;1.0;;
63953;SDS011;50128;52.094;5.232;2022-08-30T09:41:26;2.9;;;1.11;;
63953;SDS011;50128;52.094;5.232;2022-08-30T09:43:19;3.7;;;1.0;;
63953;SDS011;50128;52.094;5.232;2022-08-30T09:45:17;3.9;;;1.2;;
63953;SDS011;50128;52.094;5.232;2022-08-30T09:47:03;3.8;;;1.2;;
63953;SDS011;50128;52.094;5.232;2022-08-30T09:48:43;3.5;;;1.2;;
63953;SDS011;50128;52.094;5.232;2022-08-30T09:50:22;4.1;;;1.11;;
63953;SDS011;50128;52.094;5.232;2022-08-30T09:53:53;3.7;;;1.2;;
63953;SDS011;50128;52.094;5.232;2022-08-30T09:55:46;2.31;;;1.0;;
63953;SDS011;50128;52.094;5.232;2022-08-30T09:57:44;2.4;;;1.11;;
63953;SDS011;50128;52.094;5.232;2022-08-30T09:59:36;3.6;;;1.0;;
63953;SDS011;50128;52.094;5.232;2022-08-30T10:01:19;3.9;;;1.2;;
63953;SDS011;50128;52.094;5.232;2022-08-30T10:03:03;2.9;;;1.2;;
63953;SDS011;50128;52.094;5.232;2022-08-30T10:06:38;4.2;;;1.3;;
63953;SDS011;50128;52.094;5.232;2022-08-30T10:08:20;3.4;;;1.11;;
63953;SDS011;50128;52.094;5.232;2022-08-30T10:10:09;3.3;;;1.11;;
63953;SDS011;50128;52.094;5.232;2022-08-30T10:11:58;4.2;;;1.4;;
63953;SDS011;50128;52.094;5.232;2022-08-30T10:13:49;3.4;;;1.2;;
63953;SDS011;50128;52.094;5.232;2022-08-30T10:15:37;2.9;;;1.2;;
63953;SDS011;50128;52.094;5.232;2022-08-30T10:19:17;3.2;;;1.11;;
63953;SDS011;50128;52.094;5.232;2022-08-30T10:21:06;3.7;;;1.3;;
63953;SDS011;50128;52.094;5.232;2022-08-30T10:22:49;3.2;;;1.11;;
63953;SDS011;50128;52.094;5.232;2022-08-30T10:24:33;2.5;;;1.2;;
63953;SDS011;50128;52.094;5.232;2022-08-30T10:26:16;2.5;;;1.11;;
63953;SDS011;50128;52.094;5.232;2022-08-30T10:28:03;4.0;;;1.2;;
63953;SDS011;50128;52.094;5.232;2022-08-30T10:31:30;3.1;;;1.11;;
63953;SDS011;50128;52.094;5.232;2022-08-30T10:33:14;3.1;;;1.11;;
63953;SDS011;50128;52.094;5.232;2022-08-30T10:34:56;2.6;;;1.2;;
63953;SDS011;50128;52.094;5.232;2022-08-30T10:36:41;2.8;;;0.9;;
63953;SDS011;50128;52.094;5.232;2022-08-30T10:41:17;3.6;;;1.2;;
63953;SDS011;50128;52.094;5.232;2022-08-30T10:43:00;2.8;;;1.4;;
63953;SDS011;50128;52.094;5.232;2022-08-30T10:44:44;4.5;;;1.3;;
63953;SDS011;50128;52.094;5.232;2022-08-30T10:48:10;3.0;;;1.3;;
63953;SDS011;50128;52.094;5.232;2022-08-30T10:49:56;2.21;;;1.11;;
63953;SDS011;50128;52.094;5.232;2022-08-30T10:51:41;2.6;;;1.0;;
63953;SDS011;50128;52.094;5.232;2022-08-30T10:53:32;2.7;;;1.2;;
63953;SDS011;50128;52.094;5.232;2022-08-30T10:55:18;2.7;;;1.0;;
63953;SDS011;50128;52.094;5.232;2022-08-30T10:58:36;4.0;;;1.3;;
63953;SDS011;50128;52.094;5.232;2022-08-30T11:00:15;2.4;;;1.11;;
63953;SDS011;50128;52.094;5.232;2022-08-30T11:02:05;3.1;;;1.11;;
63953;SDS011;50128;52.094;5.232;2022-08-30T11:04:54;3.1;;;1.0;;
63953;SDS011;50128;52.094;5.232;2022-08-30T11:07:22;2.6;;;1.0;;
63953;SDS011;50128;52.094;5.232;2022-08-30T11:09:12;3.3;;;1.11;;
63953;SDS011;50128;52.094;5.232;2022-08-30T11:11:11;2.6;;;1.0;;
63953;SDS011;50128;52.094;5.232;2022-08-30T11:12:58;3.3;;;1.2;;
63953;SDS011;50128;52.094;5.232;2022-08-30T11:14:38;3.0;;;1.11;;
63953;SDS011;50128;52.094;5.232;2022-08-30T11:16:18;3.4;;;1.11;;
63953;SDS011;50128;52.094;5.232;2022-08-30T11:18:11;2.7;;;1.11;;
63953;SDS011;50128;52.094;5.232;2022-08-30T11:21:30;3.1;;;1.3;;
63953;SDS011;50128;52.094;5.232;2022-08-30T11:23:26;3.1;;;1.0;;
63953;SDS011;50128;52.094;5.232;2022-08-30T11:25:10;2.4;;;1.11;;
63953;SDS011;50128;52.094;5.232;2022-08-30T11:26:55;2.6;;;1.11;;
63953;SDS011;50128;52.094;5.232;2022-08-30T11:29:08;3.5;;;1.11;;
63953;SDS011;50128;52.094;5.232;2022-08-30T11:30:46;3.7;;;1.2;;
63953;SDS011;50128;52.094;5.232;2022-08-30T11:35:09;3.9;;;1.2;;
63953;SDS011;50128;52.094;5.232;2022-08-30T11:38:57;2.6;;;1.4;;
63953;SDS011;50128;52.094;5.232;2022-08-30T11:40:46;3.5;;;1.2;;
63953;SDS011;50128;52.094;5.232;2022-08-30T11:42:29;3.0;;;1.2;;
63953;SDS011;50128;52.094;5.232;2022-08-30T11:44:27;3.4;;;1.2;;
63953;SDS011;50128;52.094;5.232;2022-08-30T11:46:13;2.6;;;1.11;;
63953;SDS011;50128;52.094;5.232;2022-08-30T11:47:54;3.4;;;1.3;;
63953;SDS011;50128;52.094;5.232;2022-08-30T11:49:43;3.2;;;1.2;;
63953;SDS011;50128;52.094;5.232;2022-08-30T11:54:42;3.0;;;1.2;;
63953;SDS011;50128;52.094;5.232;2022-08-30T11:56:33;2.4;;;1.11;;
63953;SDS011;50128;52.094;5.232;2022-08-30T11:58:35;2.7;;;1.3;;
63953;SDS011;50128;52.094;5.232;2022-08-30T12:00:26;4.8;;;1.4;;
63953;SDS011;50128;52.094;5.232;2022-08-30T12:02:06;3.0;;;1.4;;
63953;SDS011;50128;52.094;5.232;2022-08-30T12:06:01;3.5;;;1.6;;
63953;SDS011;50128;52.094;5.232;2022-08-30T12:07:56;5.11;;;1.7;;
63953;SDS011;50128;52.094;5.232;2022-08-30T12:10:06;3.7;;;1.7;;
63953;SDS011;50128;52.094;5.232;2022-08-30T12:11:59;3.7;;;1.7;;
63953;SDS011;50128;52.094;5.232;2022-08-30T12:13:54;4.8;;;1.7;;
63953;SDS011;50128;52.094;5.232;2022-08-30T12:18:41;4.41;;;1.5;;
63953;SDS011;50128;52.094;5.232;2022-08-30T12:20:23;3.6;;;1.6;;
63953;SDS011;50128;52.094;5.232;2022-08-30T12:22:04;4.2;;;1.4;;
63953;SDS011;50128;52.094;5.232;2022-08-30T12:23:45;3.3;;;1.6;;
63953;SDS011;50128;52.094;5.232;2022-08-30T12:25:28;3.3;;;1.2;;
63953;SDS011;50128;52.094;5.232;2022-08-30T12:29:12;3.5;;;1.5;;
63953;SDS011;50128;52.094;5.232;2022-08-30T12:30:54;2.9;;;1.3;;
63953;SDS011;50128;52.094;5.232;2022-08-30T12:32:30;4.7;;;1.4;;
63953;SDS011;50128;52.094;5.232;2022-08-30T12:34:14;3.3;;;1.2;;
63953;SDS011;50128;52.094;5.232;2022-08-30T12:35:58;3.7;;;1.5;;
63953;SDS011;50128;52.094;5.232;2022-08-30T12:39:15;2.9;;;1.4;;
63953;SDS011;50128;52.094;5.232;2022-08-30T12:40:57;3.4;;;1.3;;
63953;SDS011;50128;52.094;5.232;2022-08-30T12:42:37;4.61;;;1.5;;
63953;SDS011;50128;52.094;5.232;2022-08-30T12:44:17;5.4;;;1.4;;
63953;SDS011;50128;52.094;5.232;2022-08-30T12:47:37;3.6;;;1.4;;
63953;SDS011;50128;52.094;5.232;2022-08-30T12:49:20;3.6;;;1.4;;
63953;SDS011;50128;52.094;5.232;2022-08-30T12:51:01;3.5;;;1.5;;
63953;SDS011;50128;52.094;5.232;2022-08-30T12:52:40;5.6;;;1.6;;
63953;SDS011;50128;52.094;5.232;2022-08-30T12:54:23;3.3;;;1.2;;
63953;SDS011;50128;52.094;5.232;2022-08-30T12:57:53;3.8;;;1.3;;
63953;SDS011;50128;52.094;5.232;2022-08-30T12:59:37;3.3;;;1.6;;
63953;SDS011;50128;52.094;5.232;2022-08-30T13:01:24;3.5;;;1.5;;
63953;SDS011;50128;52.094;5.232;2022-08-30T13:03:03;3.5;;;1.5;;
63953;SDS011;50128;52.094;5.232;2022-08-30T13:05:25;2.7;;;1.2;;
63953;SDS011;50128;52.094;5.232;2022-08-30T13:07:24;2.5;;;1.11;;
63953;SDS011;50128;52.094;5.232;2022-08-30T13:09:20;3.4;;;1.3;;
63953;SDS011;50128;52.094;5.232;2022-08-30T13:12:39;4.2;;;1.4;;